Time;durP1;ratioP1;P1;durP2;ratioP2;P2;SDS_P1;SDS_P2;PMS_P1;PMS_P2;Temp;Humidity;BMP_temperature;BMP_pressure;BME280_temperature;BME280_humidity;BME280_pressure;Samples;Min_cycle;Max_cycle;Signal;HPM_P1;HPM_P2
2023/04/06 00:00:56;;;;;;;7.53;5.47;;;;;;;;;;5051170;28;20437;-58
2023/04/06 00:03:22;;;;;;;7.33;5.40;;;;;;;;;;5051280;28;20445;-58
2023/04/06 00:05:48;;;;;;;7.50;5.47;;;;;;;;;;5049289;28;20438;-59
2023/04/06 00:08:14;;;;;;;5.60;4.80;;;;;;;;;;5049681;28;20204;-58
2023/04/06 00:10:40;;;;;;;8.23;5.43;;;;;;;;;;5051207;28;20423;-58
2023/04/06 00:13:07;;;;;;;6.30;5.23;;;;;;;;;;5051122;28;20975;-58
2023/04/06 00:15:33;;;;;;;5.13;4.67;;;;;;;;;;5051354;28;20838;-58
2023/04/06 00:18:01;;;;;;;7.47;5.30;;;;;;;;;;5051375;28;20462;-58
2023/04/06 00:20:27;;;;;;;5.60;4.90;;;;;;;;;;5051230;28;20848;-58
2023/04/06 00:22:53;;;;;;;6.53;5.37;;;;;;;;;;5051141;28;20717;-58
2023/04/06 00:25:19;;;;;;;5.67;5.00;;;;;;;;;;5051231;28;20488;-59
2023/04/06 00:27:45;;;;;;;7.43;5.40;;;;;;;;;;5051261;28;20443;-59
2023/04/06 00:30:12;;;;;;;6.93;5.80;;;;;;;;;;5051154;28;20807;-59
2023/04/06 00:32:38;;;;;;;7.13;5.30;;;;;;;;;;5050868;28;20323;-59
2023/04/06 00:35:06;;;;;;;6.43;5.73;;;;;;;;;;5050772;28;20896;-57
2023/04/06 00:37:32;;;;;;;8.40;6.17;;;;;;;;;;5050881;28;20689;-58
2023/04/06 00:39:58;;;;;;;6.93;5.97;;;;;;;;;;5052508;28;20469;-57
2023/04/06 00:42:27;;;;;;;7.97;5.50;;;;;;;;;;5054483;28;20438;-57
2023/04/06 00:44:54;;;;;;;8.70;5.90;;;;;;;;;;5054303;28;20461;-58
2023/04/06 00:47:20;;;;;;;7.03;5.83;;;;;;;;;;5054407;28;20621;-57
2023/04/06 00:49:46;;;;;;;7.40;5.77;;;;;;;;;;5054318;28;20435;-58
2023/04/06 00:52:13;;;;;;;6.73;5.83;;;;;;;;;;5054149;28;20445;-58
2023/04/06 00:54:39;;;;;;;6.73;5.07;;;;;;;;;;5054317;28;20283;-58
2023/04/06 00:57:05;;;;;;;6.33;5.03;;;;;;;;;;5053912;28;20458;-57
2023/04/06 00:59:32;;;;;;;8.17;5.40;;;;;;;;;;5054212;28;20525;-58
2023/04/06 01:01:58;;;;;;;5.83;4.73;;;;;;;;;;5054066;28;20427;-58
2023/04/06 01:04:24;;;;;;;5.87;5.27;;;;;;;;;;5054096;28;20435;-58
2023/04/06 01:06:50;;;;;;;5.90;5.30;;;;;;;;;;5053994;28;20529;-58
2023/04/06 01:09:17;;;;;;;6.17;5.30;;;;;;;;;;5053917;28;20434;-58
2023/04/06 01:11:44;;;;;;;5.93;5.33;;;;;;;;;;5054082;28;20529;-58
2023/04/06 01:14:10;;;;;;;7.30;5.07;;;;;;;;;;5053695;28;20479;-58
2023/04/06 01:16:36;;;;;;;6.53;5.57;;;;;;;;;;5053792;28;20489;-58
2023/04/06 01:19:07;;;;;;;5.67;4.93;;;;;;;;;;5053716;28;20447;-58
2023/04/06 01:21:33;;;;;;;6.80;5.07;;;;;;;;;;5053834;28;20431;-58
2023/04/06 01:24:00;;;;;;;5.63;4.90;;;;;;;;;;5053653;28;20435;-58
2023/04/06 01:26:27;;;;;;;6.00;5.17;;;;;;;;;;5053735;28;20200;-58
2023/04/06 01:28:53;;;;;;;6.97;5.40;;;;;;;;;;5053463;28;20470;-58
2023/04/06 01:31:19;;;;;;;6.07;4.97;;;;;;;;;;5053454;28;20852;-58
2023/04/06 01:33:45;;;;;;;7.43;5.63;;;;;;;;;;5053606;28;20478;-58
2023/04/06 01:36:11;;;;;;;6.43;5.10;;;;;;;;;;5053401;28;20279;-58
2023/04/06 01:38:37;;;;;;;6.50;5.03;;;;;;;;;;5053007;28;20454;-57
2023/04/06 01:41:05;;;;;;;7.73;5.53;;;;;;;;;;5052771;28;20441;-56
2023/04/06 01:43:31;;;;;;;6.07;5.30;;;;;;;;;;5053130;28;20471;-58
2023/04/06 01:45:57;;;;;;;5.97;5.10;;;;;;;;;;5053314;28;20498;-58
2023/04/06 01:48:23;;;;;;;5.70;5.10;;;;;;;;;;5053345;28;20253;-57
2023/04/06 01:50:49;;;;;;;8.07;5.40;;;;;;;;;;5053126;28;20855;-57
2023/04/06 01:53:16;;;;;;;6.17;5.03;;;;;;;;;;5053146;28;20474;-57
2023/04/06 01:55:42;;;;;;;5.67;5.07;;;;;;;;;;5053103;28;20216;-57
2023/04/06 01:58:09;;;;;;;7.40;5.73;;;;;;;;;;5053200;28;20492;-57
2023/04/06 02:00:35;;;;;;;5.40;4.80;;;;;;;;;;5053014;28;20435;-57
2023/04/06 02:03:01;;;;;;;6.00;5.40;;;;;;;;;;5052892;28;20463;-57
2023/04/06 02:05:28;;;;;;;5.57;5.07;;;;;;;;;;5053044;28;20430;-57
2023/04/06 02:07:54;;;;;;;5.30;4.83;;;;;;;;;;5052752;28;20438;-57
2023/04/06 02:10:20;;;;;;;5.37;4.87;;;;;;;;;;5052636;28;20443;-58
2023/04/06 02:12:46;;;;;;;6.33;5.50;;;;;;;;;;5052840;28;20307;-57
2023/04/06 02:15:14;;;;;;;6.13;5.07;;;;;;;;;;5052750;28;20475;-57
2023/04/06 02:17:40;;;;;;;7.30;5.67;;;;;;;;;;5052701;28;20204;-57
2023/04/06 02:20:06;;;;;;;6.07;5.47;;;;;;;;;;5052543;28;20518;-57
2023/04/06 02:22:32;;;;;;;7.10;5.47;;;;;;;;;;5052556;28;20971;-57
2023/04/06 02:24:58;;;;;;;5.83;5.17;;;;;;;;;;5052505;28;20466;-58
2023/04/06 02:27:24;;;;;;;6.40;5.53;;;;;;;;;;5052529;28;20192;-57
2023/04/06 02:29:50;;;;;;;6.93;5.27;;;;;;;;;;5052441;28;20949;-56
2023/04/06 02:32:18;;;;;;;6.27;5.17;;;;;;;;;;5052222;28;20232;-57
2023/04/06 02:34:44;;;;;;;7.33;5.60;;;;;;;;;;5052561;28;20287;-56
2023/04/06 02:37:10;;;;;;;6.03;5.43;;;;;;;;;;5052272;28;20530;-56
2023/04/06 02:39:36;;;;;;;5.80;5.20;;;;;;;;;;5052382;28;20207;-56
2023/04/06 02:42:02;;;;;;;6.30;5.70;;;;;;;;;;5052256;28;20192;-56
2023/04/06 02:44:27;;;;;;;6.10;5.50;;;;;;;;;;5052525;28;20984;-56
2023/04/06 02:46:54;;;;;;;6.20;5.60;;;;;;;;;;5052123;28;20196;-57
2023/04/06 02:49:21;;;;;;;5.70;5.10;;;;;;;;;;5052128;28;20200;-57
2023/04/06 02:51:47;;;;;;;7.13;5.87;;;;;;;;;;5052176;28;20818;-56
2023/04/06 02:54:13;;;;;;;5.70;5.20;;;;;;;;;;5051923;28;20479;-56
2023/04/06 02:56:39;;;;;;;5.70;5.20;;;;;;;;;;5051905;28;20227;-57
2023/04/06 02:59:05;;;;;;;7.27;4.97;;;;;;;;;;5051874;28;20258;-57
2023/04/06 03:01:31;;;;;;;5.87;5.30;;;;;;;;;;5052037;28;20488;-57
2023/04/06 03:03:57;;;;;;;5.97;5.37;;;;;;;;;;5051718;28;20439;-57
2023/04/06 03:06:24;;;;;;;6.20;5.60;;;;;;;;;;5051854;28;20658;-57
2023/04/06 03:08:50;;;;;;;5.80;5.20;;;;;;;;;;5051764;28;20435;-56
2023/04/06 03:11:16;;;;;;;6.47;5.80;;;;;;;;;;5052038;28;20451;-57
2023/04/06 03:13:42;;;;;;;5.77;5.27;;;;;;;;;;5051823;28;20258;-57
2023/04/06 03:16:08;;;;;;;6.60;5.57;;;;;;;;;;5051640;28;20200;-57
2023/04/06 03:18:34;;;;;;;6.47;5.70;;;;;;;;;;5051645;28;20435;-57
2023/04/06 03:21:00;;;;;;;6.07;5.47;;;;;;;;;;5051725;28;20445;-57
2023/04/06 03:23:28;;;;;;;6.33;5.70;;;;;;;;;;5051697;28;20443;-57
2023/04/06 03:25:54;;;;;;;6.97;6.27;;;;;;;;;;5051855;28;20223;-57
2023/04/06 03:28:20;;;;;;;6.13;5.50;;;;;;;;;;5051542;28;20427;-57
2023/04/06 03:30:46;;;;;;;6.27;5.73;;;;;;;;;;5051715;28;20451;-57
2023/04/06 03:33:12;;;;;;;6.30;5.70;;;;;;;;;;5051334;28;20490;-57
2023/04/06 03:35:38;;;;;;;6.10;5.50;;;;;;;;;;5051582;28;20508;-57
2023/04/06 03:38:04;;;;;;;7.57;6.03;;;;;;;;;;5051447;28;20204;-57
2023/04/06 03:40:32;;;;;;;6.50;5.73;;;;;;;;;;5051537;28;20196;-58
2023/04/06 03:42:57;;;;;;;6.30;5.70;;;;;;;;;;5051482;28;20932;-57
2023/04/06 03:45:24;;;;;;;6.60;6.00;;;;;;;;;;5051453;28;20434;-57
2023/04/06 03:47:50;;;;;;;6.33;5.57;;;;;;;;;;5051464;28;20200;-57
2023/04/06 03:50:16;;;;;;;6.50;5.90;;;;;;;;;;5051512;28;20434;-57
2023/04/06 03:52:42;;;;;;;6.73;6.13;;;;;;;;;;5051432;28;20487;-57
2023/04/06 03:55:08;;;;;;;6.67;5.87;;;;;;;;;;5051274;28;20203;-57
2023/04/06 03:57:37;;;;;;;7.00;6.40;;;;;;;;;;5051312;28;20302;-57
2023/04/06 04:00:03;;;;;;;7.03;6.40;;;;;;;;;;5051255;28;20474;-57
2023/04/06 04:02:29;;;;;;;6.37;5.77;;;;;;;;;;5051484;28;20442;-57
2023/04/06 04:04:55;;;;;;;7.30;5.97;;;;;;;;;;5051223;28;20436;-57
2023/04/06 04:07:21;;;;;;;6.40;5.80;;;;;;;;;;5051353;28;20810;-57
2023/04/06 04:09:47;;;;;;;7.13;6.27;;;;;;;;;;5051185;28;20201;-57
2023/04/06 04:12:15;;;;;;;9.03;6.37;;;;;;;;;;5051285;28;20685;-57
2023/04/06 04:14:43;;;;;;;8.77;6.37;;;;;;;;;;5052448;28;20235;-57
2023/04/06 04:17:09;;;;;;;7.67;6.90;;;;;;;;;;5054886;28;20450;-57
2023/04/06 04:19:35;;;;;;;10.03;8.00;;;;;;;;;;5055038;28;20525;-57
2023/04/06 04:22:04;;;;;;;8.90;7.53;;;;;;;;;;5054939;28;20461;-57
2023/04/06 04:24:30;;;;;;;12.13;7.73;;;;;;;;;;5055095;28;20202;-57
2023/04/06 04:26:56;;;;;;;12.07;8.07;;;;;;;;;;5054811;28;20943;-57
2023/04/06 04:29:22;;;;;;;12.00;8.03;;;;;;;;;;5054731;28;20493;-57
2023/04/06 04:31:51;;;;;;;10.00;7.87;;;;;;;;;;5054574;28;20569;-57
2023/04/06 04:34:19;;;;;;;8.33;7.40;;;;;;;;;;5054581;28;20478;-57
2023/04/06 04:36:45;;;;;;;9.83;7.20;;;;;;;;;;5054702;28;20955;-57
2023/04/06 04:39:11;;;;;;;9.20;7.73;;;;;;;;;;5053286;28;20431;-57
2023/04/06 04:41:37;;;;;;;8.53;7.53;;;;;;;;;;5054551;28;20265;-57
2023/04/06 04:44:04;;;;;;;8.90;7.60;;;;;;;;;;5054425;28;20680;-57
2023/04/06 04:46:30;;;;;;;8.00;7.13;;;;;;;;;;5054660;28;20469;-57
2023/04/06 04:48:57;;;;;;;9.20;8.30;;;;;;;;;;5054460;28;20438;-57
2023/04/06 04:51:24;;;;;;;9.63;7.97;;;;;;;;;;5054376;28;20678;-56
2023/04/06 04:53:50;;;;;;;9.47;8.10;;;;;;;;;;5054501;28;20509;-57
2023/04/06 04:56:16;;;;;;;9.83;8.00;;;;;;;;;;5053788;28;20490;-57
2023/04/06 04:58:42;;;;;;;12.03;8.10;;;;;;;;;;5054343;28;20188;-57
2023/04/06 05:01:08;;;;;;;8.70;7.60;;;;;;;;;;5054094;28;20736;-57
2023/04/06 05:03:35;;;;;;;9.77;8.17;;;;;;;;;;5054230;28;20234;-57
2023/04/06 05:06:02;;;;;;;10.73;8.10;;;;;;;;;;5054064;28;20431;-57
2023/04/06 05:08:29;;;;;;;9.03;8.13;;;;;;;;;;5054117;28;20999;-57
2023/04/06 05:10:55;;;;;;;9.63;8.23;;;;;;;;;;5053973;28;20430;-57
2023/04/06 05:13:21;;;;;;;9.13;8.20;;;;;;;;;;5053963;28;20706;-56
2023/04/06 05:15:47;;;;;;;8.37;7.47;;;;;;;;;;5054039;28;20437;-57
2023/04/06 05:18:13;;;;;;;8.40;7.47;;;;;;;;;;5053817;28;20439;-57
2023/04/06 05:20:39;;;;;;;9.07;7.83;;;;;;;;;;5053851;28;20450;-57
2023/04/06 05:23:06;;;;;;;8.43;7.53;;;;;;;;;;5053648;28;20851;-57
2023/04/06 05:25:32;;;;;;;10.40;7.67;;;;;;;;;;5053440;28;20439;-57
2023/04/06 05:27:59;;;;;;;8.97;7.93;;;;;;;;;;5053717;28;20449;-57
2023/04/06 05:30:25;;;;;;;12.70;9.33;;;;;;;;;;5053599;28;20435;-57
2023/04/06 05:32:51;;;;;;;11.37;9.70;;;;;;;;;;5053199;28;21060;-57
2023/04/06 05:35:17;;;;;;;11.20;8.50;;;;;;;;;;5053598;28;20473;-57
2023/04/06 05:37:43;;;;;;;11.90;9.07;;;;;;;;;;5053680;28;20451;-57
2023/04/06 05:40:11;;;;;;;11.77;9.93;;;;;;;;;;5053357;28;20485;-57
2023/04/06 05:42:38;;;;;;;10.33;9.23;;;;;;;;;;5053482;28;20292;-56
2023/04/06 05:45:04;;;;;;;9.53;8.53;;;;;;;;;;5053268;28;20862;-57
2023/04/06 05:47:30;;;;;;;10.10;9.00;;;;;;;;;;5053485;28;20799;-56
2023/04/06 05:49:56;;;;;;;9.20;8.30;;;;;;;;;;5053282;28;20442;-56
2023/04/06 05:52:22;;;;;;;9.77;8.77;;;;;;;;;;5053319;28;20200;-56
2023/04/06 05:54:48;;;;;;;9.37;8.07;;;;;;;;;;5053006;28;20235;-56
2023/04/06 05:57:19;;;;;;;10.23;8.57;;;;;;;;;;5053054;28;20945;-60
2023/04/06 05:59:45;;;;;;;11.33;8.67;;;;;;;;;;5053347;28;20439;-57
2023/04/06 06:02:11;;;;;;;9.17;8.20;;;;;;;;;;5053030;28;20602;-57
2023/04/06 06:04:37;;;;;;;9.23;7.90;;;;;;;;;;5053085;28;20518;-57
2023/04/06 06:07:03;;;;;;;11.20;8.30;;;;;;;;;;5052907;28;20201;-56
2023/04/06 06:09:29;;;;;;;9.60;8.40;;;;;;;;;;5053046;28;20452;-56
2023/04/06 06:11:55;;;;;;;9.33;8.30;;;;;;;;;;5052748;28;20496;-56
2023/04/06 06:14:23;;;;;;;8.97;8.07;;;;;;;;;;5052617;28;20558;-56
2023/04/06 06:16:49;;;;;;;9.47;8.47;;;;;;;;;;5052794;28;20443;-56
2023/04/06 06:19:15;;;;;;;8.47;7.67;;;;;;;;;;5052775;28;20443;-56
2023/04/06 06:21:41;;;;;;;8.90;8.00;;;;;;;;;;5051447;28;20227;-56
2023/04/06 06:24:07;;;;;;;8.20;7.23;;;;;;;;;;5052469;28;20196;-61
2023/04/06 06:26:35;;;;;;;7.97;7.17;;;;;;;;;;5052475;28;20427;-56
2023/04/06 06:29:01;;;;;;;10.20;6.90;;;;;;;;;;5052582;28;20498;-56
2023/04/06 06:31:28;;;;;;;9.70;6.93;;;;;;;;;;5052280;28;20836;-56
2023/04/06 06:33:54;;;;;;;7.80;7.00;;;;;;;;;;5052487;28;20514;-56
2023/04/06 06:36:20;;;;;;;8.20;7.30;;;;;;;;;;5052233;28;20435;-57
2023/04/06 06:38:46;;;;;;;6.63;6.00;;;;;;;;;;5051939;28;20447;-57
2023/04/06 06:41:12;;;;;;;6.23;5.63;;;;;;;;;;5052250;28;20431;-57
2023/04/06 06:43:38;;;;;;;7.60;5.90;;;;;;;;;;5052253;28;20196;-57
2023/04/06 06:46:05;;;;;;;6.00;5.40;;;;;;;;;;5052165;28;20815;-57
2023/04/06 06:48:33;;;;;;;6.17;5.43;;;;;;;;;;5052227;28;20654;-57
2023/04/06 06:50:59;;;;;;;8.13;6.03;;;;;;;;;;5052156;28;20446;-57
2023/04/06 06:53:25;;;;;;;6.10;5.50;;;;;;;;;;5051961;28;20506;-54
2023/04/06 06:55:51;;;;;;;6.23;5.03;;;;;;;;;;5051944;28;20451;-55
2023/04/06 06:58:18;;;;;;;6.43;5.20;;;;;;;;;;5052030;28;20431;-56
2023/04/06 07:00:44;;;;;;;6.57;4.93;;;;;;;;;;5052159;28;20201;-58
2023/04/06 07:03:10;;;;;;;9.20;5.17;;;;;;;;;;5051851;28;20442;-61
2023/04/06 07:05:38;;;;;;;6.33;5.37;;;;;;;;;;5051944;28;20655;-58
2023/04/06 07:08:04;;;;;;;7.90;5.83;;;;;;;;;;5051881;28;20552;-56
2023/04/06 07:10:30;;;;;;;5.93;5.43;;;;;;;;;;5052227;28;20458;-56
2023/04/06 07:12:56;;;;;;;6.10;5.50;;;;;;;;;;5052053;28;20889;-56
2023/04/06 07:15:22;;;;;;;5.17;4.67;;;;;;;;;;5051997;28;20526;-58
2023/04/06 07:17:49;;;;;;;6.03;5.20;;;;;;;;;;5051907;28;20434;-58
2023/04/06 07:20:15;;;;;;;5.23;4.73;;;;;;;;;;5052079;28;20427;-58
2023/04/06 07:22:44;;;;;;;5.60;5.00;;;;;;;;;;5052047;28;20430;-56
2023/04/06 07:25:10;;;;;;;5.97;4.70;;;;;;;;;;5049753;28;20435;-56
2023/04/06 07:27:36;;;;;;;5.37;4.83;;;;;;;;;;5051288;28;20502;-57
2023/04/06 07:30:02;;;;;;;5.73;4.53;;;;;;;;;;5051502;28;20431;-57
2023/04/06 07:32:29;;;;;;;5.83;5.20;;;;;;;;;;5051259;28;20294;-57
2023/04/06 07:34:56;;;;;;;5.57;4.77;;;;;;;;;;5051211;28;20485;-57
2023/04/06 07:37:22;;;;;;;6.50;5.27;;;;;;;;;;5051327;28;20435;-57
2023/04/06 07:39:49;;;;;;;5.53;4.77;;;;;;;;;;5051309;28;20437;-57
2023/04/06 07:42:15;;;;;;;6.03;5.30;;;;;;;;;;5051499;28;20465;-57
2023/04/06 07:44:41;;;;;;;5.80;5.30;;;;;;;;;;5051211;28;20921;-64
2023/04/06 07:47:07;;;;;;;7.87;5.40;;;;;;;;;;5051320;28;20211;-58
2023/04/06 07:49:33;;;;;;;5.33;4.70;;;;;;;;;;5054275;28;20559;-57
2023/04/06 07:52:00;;;;;;;6.17;5.23;;;;;;;;;;5055778;28;20438;-57
2023/04/06 07:54:26;;;;;;;9.67;5.67;;;;;;;;;;5055671;28;20498;-57
2023/04/06 07:56:53;;;;;;;7.17;5.80;;;;;;;;;;5055561;28;20451;-57
2023/04/06 07:59:20;;;;;;;5.53;4.67;;;;;;;;;;5055440;28;20462;-57
2023/04/06 08:01:45;;;;;;;5.70;5.10;;;;;;;;;;5055578;28;21004;-57
2023/04/06 08:04:11;;;;;;;5.63;4.87;;;;;;;;;;5055393;28;20509;-58
2023/04/06 08:06:37;;;;;;;6.53;5.10;;;;;;;;;;5055209;28;20194;-57
2023/04/06 08:09:04;;;;;;;6.27;4.67;;;;;;;;;;5055202;28;20662;-57
2023/04/06 08:11:30;;;;;;;5.83;5.03;;;;;;;;;;5055333;28;20249;-57
2023/04/06 08:13:57;;;;;;;4.93;4.43;;;;;;;;;;5054899;28;20236;-58
2023/04/06 08:16:23;;;;;;;5.47;4.90;;;;;;;;;;5054698;28;20200;-57
2023/04/06 08:18:49;;;;;;;6.90;5.20;;;;;;;;;;5054967;28;20227;-58
2023/04/06 08:21:15;;;;;;;6.57;5.10;;;;;;;;;;5054805;28;20204;-58
2023/04/06 08:23:41;;;;;;;6.07;5.07;;;;;;;;;;5054963;28;20654;-59
2023/04/06 08:26:07;;;;;;;8.50;5.07;;;;;;;;;;5054987;28;20200;-58
2023/04/06 08:28:34;;;;;;;5.27;4.67;;;;;;;;;;5055169;28;20196;-56
2023/04/06 08:31:05;;;;;;;5.93;4.93;;;;;;;;;;5054932;28;20196;-56
2023/04/06 08:33:31;;;;;;;6.67;4.93;;;;;;;;;;5055145;28;20232;-58
2023/04/06 08:35:57;;;;;;;5.00;4.50;;;;;;;;;;5055029;28;20192;-58
2023/04/06 08:38:23;;;;;;;5.20;4.70;;;;;;;;;;5055021;28;20202;-58
2023/04/06 08:40:51;;;;;;;4.87;4.47;;;;;;;;;;5054726;28;20214;-57
2023/04/06 08:43:17;;;;;;;5.70;5.20;;;;;;;;;;5054769;28;20203;-57
2023/04/06 08:45:43;;;;;;;6.17;4.80;;;;;;;;;;5054938;28;20200;-58
2023/04/06 08:48:12;;;;;;;9.37;5.40;;;;;;;;;;5054593;28;20692;-58
2023/04/06 08:50:38;;;;;;;5.30;4.80;;;;;;;;;;5054700;28;20211;-58
2023/04/06 08:53:06;;;;;;;5.57;4.90;;;;;;;;;;5054396;28;20199;-59
2023/04/06 08:55:32;;;;;;;7.93;4.63;;;;;;;;;;5054640;28;20204;-57
2023/04/06 08:57:59;;;;;;;5.97;5.37;;;;;;;;;;5054616;28;20204;-58
2023/04/06 09:00:26;;;;;;;6.73;4.97;;;;;;;;;;5053753;28;20277;-58
2023/04/06 09:02:54;;;;;;;5.30;4.80;;;;;;;;;;5054360;28;20220;-58
2023/04/06 09:05:22;;;;;;;6.07;4.47;;;;;;;;;;5054364;28;20341;-59
2023/04/06 09:07:48;;;;;;;5.53;4.97;;;;;;;;;;5054384;28;20219;-59
2023/04/06 09:10:15;;;;;;;6.13;5.37;;;;;;;;;;5054386;28;20191;-58
2023/04/06 09:12:41;;;;;;;5.77;5.17;;;;;;;;;;5054413;28;20201;-57
2023/04/06 09:15:18;;;;;;;6.10;5.27;;;;;;;;;;5053957;28;20620;-57
2023/04/06 09:17:44;;;;;;;7.90;5.70;;;;;;;;;;5054038;28;20204;-57
2023/04/06 09:20:12;;;;;;;5.70;5.07;;;;;;;;;;5053812;28;20614;-58
2023/04/06 09:22:39;;;;;;;8.03;5.20;;;;;;;;;;5053834;28;20208;-57
2023/04/06 09:25:06;;;;;;;6.33;5.03;;;;;;;;;;5053823;28;20564;-57
2023/04/06 09:27:33;;;;;;;5.77;5.17;;;;;;;;;;5051840;28;20201;-57
2023/04/06 09:30:06;;;;;;;6.43;5.17;;;;;;;;;;5053573;28;20462;-57
2023/04/06 09:32:32;;;;;;;6.57;5.20;;;;;;;;;;5053368;28;20236;-57
2023/04/06 09:35:06;;;;;;;6.00;5.40;;;;;;;;;;5053453;28;20220;-57
2023/04/06 09:37:32;;;;;;;6.77;5.53;;;;;;;;;;5053298;28;20226;-57
2023/04/06 09:40:05;;;;;;;6.00;4.87;;;;;;;;;;5053418;28;20196;-58
2023/04/06 09:42:31;;;;;;;6.37;5.73;;;;;;;;;;5053434;28;20211;-58
2023/04/06 09:44:57;;;;;;;8.17;5.60;;;;;;;;;;5053280;28;20184;-58
2023/04/06 09:47:23;;;;;;;5.63;5.03;;;;;;;;;;5053062;28;20606;-58
2023/04/06 09:49:51;;;;;;;6.10;5.07;;;;;;;;;;5053091;28;20250;-57
2023/04/06 09:52:17;;;;;;;6.27;5.63;;;;;;;;;;5053035;28;20222;-57
2023/04/06 09:54:43;;;;;;;6.90;5.40;;;;;;;;;;5052816;28;20259;-58
2023/04/06 09:57:14;;;;;;;5.90;5.10;;;;;;;;;;5050900;28;20334;-58
2023/04/06 09:59:45;;;;;;;6.77;5.57;;;;;;;;;;5052781;28;20567;-58
2023/04/06 10:02:16;;;;;;;7.43;5.67;;;;;;;;;;5052936;28;20208;-59
2023/04/06 10:04:44;;;;;;;5.97;5.37;;;;;;;;;;5053057;28;20253;-58
2023/04/06 10:07:11;;;;;;;6.77;5.27;;;;;;;;;;5052699;28;20605;-58
2023/04/06 10:09:38;;;;;;;6.37;5.73;;;;;;;;;;5052835;28;20224;-58
2023/04/06 10:12:04;;;;;;;7.37;6.30;;;;;;;;;;5051531;28;20196;-59
2023/04/06 10:14:35;;;;;;;8.67;5.97;;;;;;;;;;5052778;28;20690;-58
2023/04/06 10:17:02;;;;;;;7.07;5.90;;;;;;;;;;5052607;28;20679;-58
2023/04/06 10:19:30;;;;;;;7.80;5.83;;;;;;;;;;5052885;28;20204;-58
2023/04/06 10:21:58;;;;;;;7.10;6.10;;;;;;;;;;5052512;28;20223;-57
2023/04/06 10:24:24;;;;;;;6.93;5.90;;;;;;;;;;5052390;28;20227;-59
2023/04/06 10:27:00;;;;;;;7.10;5.73;;;;;;;;;;5052443;28;20207;-58
2023/04/06 10:29:26;;;;;;;7.53;6.17;;;;;;;;;;5052311;28;20200;-58
2023/04/06 10:31:55;;;;;;;6.60;5.90;;;;;;;;;;5052212;28;20345;-59
2023/04/06 10:34:21;;;;;;;6.53;5.50;;;;;;;;;;5052206;28;20451;-58
2023/04/06 10:36:47;;;;;;;8.40;5.70;;;;;;;;;;5052950;28;20718;-58
2023/04/06 10:39:13;;;;;;;7.73;6.33;;;;;;;;;;5052635;28;20204;-58
2023/04/06 10:41:42;;;;;;;7.53;5.90;;;;;;;;;;5052722;28;20614;-58
2023/04/06 10:44:08;;;;;;;6.93;5.57;;;;;;;;;;5052410;28;20192;-60
2023/04/06 10:46:34;;;;;;;6.17;5.57;;;;;;;;;;5052480;28;20279;-58
2023/04/06 10:49:12;;;;;;;6.97;5.90;;;;;;;;;;5052539;28;20200;-58
2023/04/06 10:51:38;;;;;;;6.97;6.27;;;;;;;;;;5052582;28;20208;-58
2023/04/06 10:54:05;;;;;;;7.70;6.73;;;;;;;;;;5052061;28;20231;-59
2023/04/06 10:56:35;;;;;;;6.90;6.20;;;;;;;;;;5052466;28;20683;-58
2023/04/06 10:59:01;;;;;;;10.53;6.70;;;;;;;;;;5052166;28;20204;-58
2023/04/06 11:01:27;;;;;;;10.07;7.03;;;;;;;;;;5052317;28;20249;-58
2023/04/06 11:03:55;;;;;;;9.80;7.07;;;;;;;;;;5052208;28;20250;-58
2023/04/06 11:06:23;;;;;;;10.37;7.10;;;;;;;;;;5052072;28;20252;-59
2023/04/06 11:08:49;;;;;;;8.97;7.77;;;;;;;;;;5052002;28;20211;-60
2023/04/06 11:11:18;;;;;;;7.80;6.67;;;;;;;;;;5052097;28;20287;-58
2023/04/06 11:13:45;;;;;;;9.17;8.10;;;;;;;;;;5052077;28;20224;-58
2023/04/06 11:16:15;;;;;;;11.60;8.37;;;;;;;;;;5051835;28;20290;-58
2023/04/06 11:18:51;;;;;;;8.43;7.40;;;;;;;;;;5051803;28;20200;-58
2023/04/06 11:21:17;;;;;;;8.03;7.23;;;;;;;;;;5051717;28;20230;-58
2023/04/06 11:23:44;;;;;;;8.07;6.80;;;;;;;;;;5051478;28;20665;-58
2023/04/06 11:26:11;;;;;;;9.10;7.53;;;;;;;;;;5051269;28;20212;-58
2023/04/06 11:28:37;;;;;;;8.30;7.07;;;;;;;;;;5051366;28;20202;-58
2023/04/06 11:31:03;;;;;;;7.50;6.70;;;;;;;;;;5049682;28;20321;-59
2023/04/06 11:33:36;;;;;;;8.57;6.90;;;;;;;;;;5070689;28;20237;-59
2023/04/06 11:36:02;;;;;;;9.10;6.63;;;;;;;;;;5071599;28;20206;-58
2023/04/06 11:38:28;;;;;;;9.33;7.80;;;;;;;;;;5070482;28;20203;-59
2023/04/06 11:40:55;;;;;;;9.00;7.80;;;;;;;;;;5071708;28;20626;-58
2023/04/06 11:43:26;;;;;;;8.50;7.13;;;;;;;;;;5071382;28;20202;-58
2023/04/06 11:46:00;;;;;;;9.10;6.80;;;;;;;;;;5071787;28;20283;-57
2023/04/06 11:48:26;;;;;;;8.93;7.80;;;;;;;;;;5071614;28;20225;-58
2023/04/06 11:50:55;;;;;;;8.10;7.30;;;;;;;;;;5071250;28;20195;-57
2023/04/06 11:53:21;;;;;;;8.47;7.57;;;;;;;;;;5071159;28;20204;-58
2023/04/06 11:55:47;;;;;;;8.80;7.27;;;;;;;;;;5071551;28;20285;-57
2023/04/06 11:58:15;;;;;;;8.73;7.73;;;;;;;;;;5071556;28;20261;-58
2023/04/06 12:00:44;;;;;;;8.03;7.23;;;;;;;;;;5071279;28;20603;-58
2023/04/06 12:03:10;;;;;;;8.17;6.80;;;;;;;;;;5071243;28;20246;-56
2023/04/06 12:05:36;;;;;;;8.70;7.17;;;;;;;;;;5071461;28;20207;-57
2023/04/06 12:08:03;;;;;;;7.93;7.13;;;;;;;;;;5071245;28;20199;-54
2023/04/06 12:10:29;;;;;;;9.67;7.30;;;;;;;;;;5070974;28;20249;-52
2023/04/06 12:12:55;;;;;;;7.67;6.97;;;;;;;;;;5071003;28;20609;-57
2023/04/06 12:15:22;;;;;;;7.37;6.67;;;;;;;;;;5070957;28;20219;-60
2023/04/06 12:17:49;;;;;;;7.00;6.30;;;;;;;;;;5071195;28;20263;-61
2023/04/06 12:20:15;;;;;;;8.80;7.10;;;;;;;;;;5067119;28;20573;-60
2023/04/06 12:22:41;;;;;;;9.37;7.00;;;;;;;;;;5071208;28;20195;-60
2023/04/06 12:25:08;;;;;;;8.77;6.83;;;;;;;;;;5071104;28;20310;-60
2023/04/06 12:27:34;;;;;;;8.27;7.23;;;;;;;;;;5071286;28;20612;-60
2023/04/06 12:30:00;;;;;;;9.13;7.03;;;;;;;;;;5071320;28;20730;-59
2023/04/06 12:32:27;;;;;;;7.33;6.13;;;;;;;;;;5071108;28;20235;-60
2023/04/06 12:34:53;;;;;;;8.47;6.53;;;;;;;;;;5071355;28;20232;-60
2023/04/06 12:37:20;;;;;;;7.67;6.87;;;;;;;;;;5074761;28;20728;-60
2023/04/06 12:39:46;;;;;;;9.97;7.13;;;;;;;;;;5075063;28;20245;-60
2023/04/06 12:42:13;;;;;;;8.67;7.23;;;;;;;;;;5074904;28;20195;-60
2023/04/06 12:44:39;;;;;;;8.73;6.50;;;;;;;;;;5074836;28;20199;-60
2023/04/06 12:47:07;;;;;;;10.57;7.17;;;;;;;;;;5074628;28;20215;-60
2023/04/06 12:49:34;;;;;;;8.63;7.13;;;;;;;;;;5074637;28;20199;-59
2023/04/06 12:52:00;;;;;;;8.27;7.43;;;;;;;;;;5074528;28;20203;-61
2023/04/06 12:54:26;;;;;;;8.47;7.63;;;;;;;;;;5074518;28;20701;-60
2023/04/06 12:56:52;;;;;;;8.30;7.43;;;;;;;;;;5074571;28;20222;-60
2023/04/06 12:59:18;;;;;;;7.67;6.93;;;;;;;;;;5074723;28;20195;-60
2023/04/06 13:01:45;;;;;;;9.00;6.40;;;;;;;;;;5074738;28;20253;-60
2023/04/06 13:04:11;;;;;;;9.73;8.23;;;;;;;;;;5074512;28;20628;-59
2023/04/06 13:06:38;;;;;;;8.07;6.90;;;;;;;;;;5074649;28;20249;-60
2023/04/06 13:09:05;;;;;;;10.30;7.10;;;;;;;;;;5074266;28;20207;-61
2023/04/06 13:11:31;;;;;;;9.20;7.80;;;;;;;;;;5074134;28;20278;-60
2023/04/06 13:13:57;;;;;;;8.37;7.10;;;;;;;;;;5074201;28;20620;-59
2023/04/06 13:16:23;;;;;;;8.70;6.83;;;;;;;;;;5073874;28;20204;-60
2023/04/06 13:18:49;;;;;;;8.47;7.13;;;;;;;;;;5072760;28;20199;-60
2023/04/06 13:21:16;;;;;;;8.97;7.20;;;;;;;;;;5074223;28;20196;-60
2023/04/06 13:23:44;;;;;;;7.63;6.73;;;;;;;;;;5074408;28;20195;-59
2023/04/06 13:26:10;;;;;;;6.90;6.23;;;;;;;;;;5073924;28;20219;-60
2023/04/06 13:28:38;;;;;;;7.00;6.23;;;;;;;;;;5075101;28;20567;-60
2023/04/06 13:31:04;;;;;;;8.10;7.30;;;;;;;;;;5073867;28;20214;-59
2023/04/06 13:33:31;;;;;;;7.30;6.60;;;;;;;;;;5074069;28;20282;-59
2023/04/06 13:35:57;;;;;;;8.30;6.60;;;;;;;;;;5073844;28;20596;-59
2023/04/06 13:38:25;;;;;;;8.33;6.97;;;;;;;;;;5073675;28;20249;-59
2023/04/06 13:40:53;;;;;;;9.07;6.70;;;;;;;;;;5073783;28;20282;-59
2023/04/06 13:43:20;;;;;;;9.83;6.80;;;;;;;;;;5073573;28;20207;-59
2023/04/06 13:45:49;;;;;;;9.03;6.80;;;;;;;;;;5073791;28;20612;-55
2023/04/06 13:48:15;;;;;;;7.77;6.30;;;;;;;;;;5073620;28;20191;-58
2023/04/06 13:50:41;;;;;;;7.73;6.97;;;;;;;;;;5073826;28;20217;-55
2023/04/06 13:53:07;;;;;;;9.60;6.70;;;;;;;;;;5073495;28;20384;-56
2023/04/06 13:55:33;;;;;;;8.60;7.50;;;;;;;;;;5073340;28;20618;-57
2023/04/06 13:58:00;;;;;;;7.73;6.77;;;;;;;;;;5073342;28;20207;-56
2023/04/06 14:00:26;;;;;;;7.37;6.20;;;;;;;;;;5073294;28;20211;-56
2023/04/06 14:02:54;;;;;;;11.07;7.37;;;;;;;;;;5073247;28;20654;-56
2023/04/06 14:05:20;;;;;;;7.80;7.00;;;;;;;;;;5072953;28;20576;-56
2023/04/06 14:07:46;;;;;;;8.03;7.13;;;;;;;;;;5073186;28;20253;-56
2023/04/06 14:10:14;;;;;;;9.93;7.00;;;;;;;;;;5073049;28;20192;-55
2023/04/06 14:12:40;;;;;;;8.60;6.50;;;;;;;;;;5070832;28;20202;-56
2023/04/06 14:15:09;;;;;;;7.30;6.47;;;;;;;;;;5072170;28;20262;-55
2023/04/06 14:17:35;;;;;;;7.73;6.93;;;;;;;;;;5071960;28;20223;-57
2023/04/06 14:20:01;;;;;;;7.30;6.57;;;;;;;;;;5072441;28;20688;-57
2023/04/06 14:22:27;;;;;;;7.90;6.70;;;;;;;;;;5072395;28;20219;-56
2023/04/06 14:24:52;;;;;;;7.30;6.60;;;;;;;;;;5072488;28;20582;-56
2023/04/06 14:27:18;;;;;;;7.83;7.03;;;;;;;;;;5072307;28;20203;-57
2023/04/06 14:29:45;;;;;;;6.97;6.27;;;;;;;;;;5072526;28;20191;-57
2023/04/06 14:32:12;;;;;;;7.80;6.57;;;;;;;;;;5072005;28;20648;-57
2023/04/06 14:34:38;;;;;;;12.40;7.13;;;;;;;;;;5072226;28;20230;-57
2023/04/06 14:37:05;;;;;;;7.67;6.80;;;;;;;;;;5072138;28;20199;-57
2023/04/06 14:39:31;;;;;;;7.23;6.50;;;;;;;;;;5072272;28;20199;-56